sensor_id;sensor_type;location;lat;lon;timestamp;P1;durP1;ratioP1;P2;durP2;ratioP2
28343;SDS011;15597;50.914;6.638;2023-04-03T00:01:01;3.88;;;1.50;;
28343;SDS011;15597;50.914;6.638;2023-04-03T00:03:28;4.43;;;1.70;;
28343;SDS011;15597;50.914;6.638;2023-04-03T00:05:53;4.97;;;1.63;;
28343;SDS011;15597;50.914;6.638;2023-04-03T00:08:20;4.40;;;1.70;;
28343;SDS011;15597;50.914;6.638;2023-04-03T00:10:45;5.85;;;1.90;;
28343;SDS011;15597;50.914;6.638;2023-04-03T00:13:11;4.43;;;1.60;;
28343;SDS011;15597;50.914;6.638;2023-04-03T00:15:37;5.63;;;1.75;;
28343;SDS011;15597;50.914;6.638;2023-04-03T00:18:03;6.35;;;1.90;;
28343;SDS011;15597;50.914;6.638;2023-04-03T00:20:29;4.28;;;1.60;;
28343;SDS011;15597;50.914;6.638;2023-04-03T00:22:55;5.78;;;1.85;;
28343;SDS011;15597;50.914;6.638;2023-04-03T00:25:21;5.30;;;1.65;;
28343;SDS011;15597;50.914;6.638;2023-04-03T00:27:46;4.13;;;1.50;;
28343;SDS011;15597;50.914;6.638;2023-04-03T00:30:16;5.85;;;1.75;;
28343;SDS011;15597;50.914;6.638;2023-04-03T00:32:42;6.05;;;1.88;;
28343;SDS011;15597;50.914;6.638;2023-04-03T00:35:08;3.72;;;1.83;;
28343;SDS011;15597;50.914;6.638;2023-04-03T00:37:34;5.40;;;1.88;;
28343;SDS011;15597;50.914;6.638;2023-04-03T00:40:00;5.13;;;1.95;;
28343;SDS011;15597;50.914;6.638;2023-04-03T00:42:25;4.85;;;1.80;;
28343;SDS011;15597;50.914;6.638;2023-04-03T00:47:23;5.70;;;2.03;;
28343;SDS011;15597;50.914;6.638;2023-04-03T00:49:50;4.97;;;1.90;;
28343;SDS011;15597;50.914;6.638;2023-04-03T00:52:17;4.40;;;1.80;;
28343;SDS011;15597;50.914;6.638;2023-04-03T00:54:47;4.18;;;1.90;;
28343;SDS011;15597;50.914;6.638;2023-04-03T00:57:15;4.03;;;1.83;;
28343;SDS011;15597;50.914;6.638;2023-04-03T00:59:43;4.78;;;2.00;;
28343;SDS011;15597;50.914;6.638;2023-04-03T01:02:14;4.35;;;1.92;;
28343;SDS011;15597;50.914;6.638;2023-04-03T01:04:42;5.53;;;2.33;;
28343;SDS011;15597;50.914;6.638;2023-04-03T01:09:34;4.90;;;2.33;;
28343;SDS011;15597;50.914;6.638;2023-04-03T01:12:13;5.20;;;2.50;;
28343;SDS011;15597;50.914;6.638;2023-04-03T01:28:07;6.30;;;2.40;;
28343;SDS011;15597;50.914;6.638;2023-04-03T01:30:36;6.50;;;2.60;;
28343;SDS011;15597;50.914;6.638;2023-04-03T01:33:25;4.50;;;2.42;;
28343;SDS011;15597;50.914;6.638;2023-04-03T01:35:50;7.45;;;2.65;;
28343;SDS011;15597;50.914;6.638;2023-04-03T01:38:17;6.45;;;2.70;;
28343;SDS011;15597;50.914;6.638;2023-04-03T01:40:42;6.25;;;2.80;;
28343;SDS011;15597;50.914;6.638;2023-04-03T01:43:08;5.32;;;2.63;;
28343;SDS011;15597;50.914;6.638;2023-04-03T01:45:34;6.43;;;2.90;;
28343;SDS011;15597;50.914;6.638;2023-04-03T01:48:00;5.25;;;2.80;;
28343;SDS011;15597;50.914;6.638;2023-04-03T01:50:25;7.00;;;3.03;;
28343;SDS011;15597;50.914;6.638;2023-04-03T01:52:51;5.45;;;2.80;;
28343;SDS011;15597;50.914;6.638;2023-04-03T01:55:17;5.65;;;2.80;;
28343;SDS011;15597;50.914;6.638;2023-04-03T01:57:42;5.05;;;2.60;;
28343;SDS011;15597;50.914;6.638;2023-04-03T02:00:08;4.80;;;2.50;;
28343;SDS011;15597;50.914;6.638;2023-04-03T02:02:38;6.30;;;3.00;;
28343;SDS011;15597;50.914;6.638;2023-04-03T02:05:04;6.25;;;2.72;;
28343;SDS011;15597;50.914;6.638;2023-04-03T02:07:30;6.03;;;2.88;;
28343;SDS011;15597;50.914;6.638;2023-04-03T02:09:56;6.35;;;3.00;;
28343;SDS011;15597;50.914;6.638;2023-04-03T02:12:22;6.72;;;3.13;;
28343;SDS011;15597;50.914;6.638;2023-04-03T02:14:47;5.40;;;2.92;;
28343;SDS011;15597;50.914;6.638;2023-04-03T02:17:13;5.80;;;2.97;;
28343;SDS011;15597;50.914;6.638;2023-04-03T02:19:38;5.28;;;2.85;;
28343;SDS011;15597;50.914;6.638;2023-04-03T02:22:04;5.30;;;2.67;;
28343;SDS011;15597;50.914;6.638;2023-04-03T02:24:30;6.68;;;3.28;;
28343;SDS011;15597;50.914;6.638;2023-04-03T02:26:58;6.82;;;3.30;;
28343;SDS011;15597;50.914;6.638;2023-04-03T02:29:25;7.20;;;3.45;;
28343;SDS011;15597;50.914;6.638;2023-04-03T02:31:52;6.45;;;3.80;;
28343;SDS011;15597;50.914;6.638;2023-04-03T02:34:19;8.25;;;4.75;;
28343;SDS011;15597;50.914;6.638;2023-04-03T02:36:46;7.55;;;3.90;;
28343;SDS011;15597;50.914;6.638;2023-04-03T02:39:12;8.43;;;3.97;;
28343;SDS011;15597;50.914;6.638;2023-04-03T02:41:38;7.07;;;4.00;;
28343;SDS011;15597;50.914;6.638;2023-04-03T02:44:10;8.88;;;4.53;;
28343;SDS011;15597;50.914;6.638;2023-04-03T02:46:36;7.15;;;3.92;;
28343;SDS011;15597;50.914;6.638;2023-04-03T02:49:02;6.95;;;4.10;;
28343;SDS011;15597;50.914;6.638;2023-04-03T02:51:28;8.43;;;4.10;;
28343;SDS011;15597;50.914;6.638;2023-04-03T02:53:54;6.22;;;3.60;;
28343;SDS011;15597;50.914;6.638;2023-04-03T02:56:24;7.97;;;4.30;;
28343;SDS011;15597;50.914;6.638;2023-04-03T02:58:50;6.70;;;3.97;;
28343;SDS011;15597;50.914;6.638;2023-04-03T03:01:16;7.03;;;4.10;;
28343;SDS011;15597;50.914;6.638;2023-04-03T03:03:42;5.10;;;2.78;;
28343;SDS011;15597;50.914;6.638;2023-04-03T03:06:08;7.25;;;4.07;;
28343;SDS011;15597;50.914;6.638;2023-04-03T03:08:36;9.25;;;4.68;;
28343;SDS011;15597;50.914;6.638;2023-04-03T03:11:03;8.73;;;4.47;;
28343;SDS011;15597;50.914;6.638;2023-04-03T03:13:29;6.47;;;4.05;;
28343;SDS011;15597;50.914;6.638;2023-04-03T03:15:55;5.85;;;3.45;;
28343;SDS011;15597;50.914;6.638;2023-04-03T03:18:21;7.28;;;4.55;;
28343;SDS011;15597;50.914;6.638;2023-04-03T03:20:51;7.75;;;3.92;;
28343;SDS011;15597;50.914;6.638;2023-04-03T03:23:19;8.45;;;3.90;;
28343;SDS011;15597;50.914;6.638;2023-04-03T03:25:44;6.47;;;3.53;;
28343;SDS011;15597;50.914;6.638;2023-04-03T03:28:10;6.93;;;4.07;;
28343;SDS011;15597;50.914;6.638;2023-04-03T03:30:36;6.15;;;3.60;;
28343;SDS011;15597;50.914;6.638;2023-04-03T03:33:02;5.43;;;3.38;;
28343;SDS011;15597;50.914;6.638;2023-04-03T03:35:28;8.25;;;3.80;;
28343;SDS011;15597;50.914;6.638;2023-04-03T03:37:54;5.47;;;3.40;;
28343;SDS011;15597;50.914;6.638;2023-04-03T03:40:20;7.25;;;3.38;;
28343;SDS011;15597;50.914;6.638;2023-04-03T03:42:46;5.18;;;3.08;;
28343;SDS011;15597;50.914;6.638;2023-04-03T03:45:12;10.85;;;3.58;;
28343;SDS011;15597;50.914;6.638;2023-04-03T03:47:37;8.02;;;3.83;;
28343;SDS011;15597;50.914;6.638;2023-04-03T03:50:03;5.85;;;3.30;;
28343;SDS011;15597;50.914;6.638;2023-04-03T03:52:30;7.35;;;3.75;;
28343;SDS011;15597;50.914;6.638;2023-04-03T03:54:56;6.57;;;3.50;;
28343;SDS011;15597;50.914;6.638;2023-04-03T03:57:22;9.85;;;3.60;;
28343;SDS011;15597;50.914;6.638;2023-04-03T03:59:48;7.85;;;3.35;;
28343;SDS011;15597;50.914;6.638;2023-04-03T04:04:41;6.03;;;3.20;;
28343;SDS011;15597;50.914;6.638;2023-04-03T04:07:07;6.70;;;3.40;;
28343;SDS011;15597;50.914;6.638;2023-04-03T04:09:34;8.07;;;3.05;;
28343;SDS011;15597;50.914;6.638;2023-04-03T04:11:59;6.03;;;2.65;;
28343;SDS011;15597;50.914;6.638;2023-04-03T04:14:25;7.18;;;2.58;;
28343;SDS011;15597;50.914;6.638;2023-04-03T04:16:52;6.35;;;2.75;;
28343;SDS011;15597;50.914;6.638;2023-04-03T04:19:22;8.63;;;3.15;;
28343;SDS011;15597;50.914;6.638;2023-04-03T04:21:48;5.30;;;2.75;;
28343;SDS011;15597;50.914;6.638;2023-04-03T04:24:14;5.85;;;2.72;;
28343;SDS011;15597;50.914;6.638;2023-04-03T04:26:40;6.78;;;2.60;;
28343;SDS011;15597;50.914;6.638;2023-04-03T04:29:09;5.95;;;2.58;;
28343;SDS011;15597;50.914;6.638;2023-04-03T04:31:35;7.57;;;2.90;;
28343;SDS011;15597;50.914;6.638;2023-04-03T04:34:01;7.80;;;3.13;;
28343;SDS011;15597;50.914;6.638;2023-04-03T04:36:26;6.90;;;2.58;;
28343;SDS011;15597;50.914;6.638;2023-04-03T04:38:52;7.55;;;2.72;;
28343;SDS011;15597;50.914;6.638;2023-04-03T04:41:20;5.25;;;2.80;;
28343;SDS011;15597;50.914;6.638;2023-04-03T04:43:48;6.90;;;2.83;;
28343;SDS011;15597;50.914;6.638;2023-04-03T04:46:14;7.55;;;3.03;;
28343;SDS011;15597;50.914;6.638;2023-04-03T04:48:48;5.45;;;2.53;;
28343;SDS011;15597;50.914;6.638;2023-04-03T04:51:15;5.47;;;2.72;;
28343;SDS011;15597;50.914;6.638;2023-04-03T04:53:41;5.45;;;2.80;;
28343;SDS011;15597;50.914;6.638;2023-04-03T04:56:09;4.60;;;2.50;;
28343;SDS011;15597;50.914;6.638;2023-04-03T04:58:36;7.97;;;2.90;;
28343;SDS011;15597;50.914;6.638;2023-04-03T05:01:04;6.78;;;2.72;;
28343;SDS011;15597;50.914;6.638;2023-04-03T05:03:34;6.07;;;2.97;;
28343;SDS011;15597;50.914;6.638;2023-04-03T05:06:02;5.40;;;2.65;;
28343;SDS011;15597;50.914;6.638;2023-04-03T05:08:30;8.02;;;2.92;;
28343;SDS011;15597;50.914;6.638;2023-04-03T05:10:56;6.97;;;3.15;;
28343;SDS011;15597;50.914;6.638;2023-04-03T05:13:23;6.93;;;3.03;;
28343;SDS011;15597;50.914;6.638;2023-04-03T05:15:49;5.18;;;2.53;;
28343;SDS011;15597;50.914;6.638;2023-04-03T05:18:15;5.93;;;3.10;;
28343;SDS011;15597;50.914;6.638;2023-04-03T05:20:41;6.93;;;3.00;;
28343;SDS011;15597;50.914;6.638;2023-04-03T05:23:09;6.50;;;2.85;;
28343;SDS011;15597;50.914;6.638;2023-04-03T05:25:37;6.68;;;2.80;;
28343;SDS011;15597;50.914;6.638;2023-04-03T05:28:03;5.88;;;2.90;;
28343;SDS011;15597;50.914;6.638;2023-04-03T05:30:29;7.15;;;2.60;;
28343;SDS011;15597;50.914;6.638;2023-04-03T05:32:55;6.38;;;2.80;;
28343;SDS011;15597;50.914;6.638;2023-04-03T05:35:31;4.85;;;2.55;;
28343;SDS011;15597;50.914;6.638;2023-04-03T05:37:59;8.60;;;3.08;;
28343;SDS011;15597;50.914;6.638;2023-04-03T05:40:25;6.25;;;2.55;;
28343;SDS011;15597;50.914;6.638;2023-04-03T05:42:53;4.65;;;2.30;;
28343;SDS011;15597;50.914;6.638;2023-04-03T05:45:20;4.68;;;2.28;;
28343;SDS011;15597;50.914;6.638;2023-04-03T05:47:47;6.88;;;2.33;;
28343;SDS011;15597;50.914;6.638;2023-04-03T05:50:13;9.23;;;2.65;;
28343;SDS011;15597;50.914;6.638;2023-04-03T05:52:40;7.65;;;2.40;;
28343;SDS011;15597;50.914;6.638;2023-04-03T05:55:09;4.22;;;2.10;;
28343;SDS011;15597;50.914;6.638;2023-04-03T05:57:35;4.85;;;1.98;;
28343;SDS011;15597;50.914;6.638;2023-04-03T06:00:02;4.75;;;2.10;;
28343;SDS011;15597;50.914;6.638;2023-04-03T06:02:39;6.82;;;2.58;;
28343;SDS011;15597;50.914;6.638;2023-04-03T06:05:06;4.60;;;2.38;;
28343;SDS011;15597;50.914;6.638;2023-04-03T06:07:33;5.75;;;2.20;;
28343;SDS011;15597;50.914;6.638;2023-04-03T06:09:59;4.80;;;2.00;;
28343;SDS011;15597;50.914;6.638;2023-04-03T06:12:26;5.53;;;2.03;;
28343;SDS011;15597;50.914;6.638;2023-04-03T06:14:54;6.00;;;2.08;;
28343;SDS011;15597;50.914;6.638;2023-04-03T06:17:19;6.38;;;2.20;;
28343;SDS011;15597;50.914;6.638;2023-04-03T06:19:46;3.95;;;2.00;;
28343;SDS011;15597;50.914;6.638;2023-04-03T06:22:12;5.55;;;1.80;;
28343;SDS011;15597;50.914;6.638;2023-04-03T06:24:38;6.20;;;2.00;;
28343;SDS011;15597;50.914;6.638;2023-04-03T06:27:04;4.72;;;2.10;;
28343;SDS011;15597;50.914;6.638;2023-04-03T06:29:30;4.80;;;1.90;;
28343;SDS011;15597;50.914;6.638;2023-04-03T06:31:56;5.32;;;1.80;;
28343;SDS011;15597;50.914;6.638;2023-04-03T06:34:22;6.60;;;2.20;;
28343;SDS011;15597;50.914;6.638;2023-04-03T06:36:47;5.25;;;1.90;;
28343;SDS011;15597;50.914;6.638;2023-04-03T06:39:14;4.70;;;2.00;;
28343;SDS011;15597;50.914;6.638;2023-04-03T06:41:42;5.47;;;2.28;;
28343;SDS011;15597;50.914;6.638;2023-04-03T06:44:08;6.55;;;2.20;;
28343;SDS011;15597;50.914;6.638;2023-04-03T06:46:36;5.40;;;2.08;;
28343;SDS011;15597;50.914;6.638;2023-04-03T06:49:03;5.35;;;2.03;;
28343;SDS011;15597;50.914;6.638;2023-04-03T06:51:32;3.60;;;1.70;;
28343;SDS011;15597;50.914;6.638;2023-04-03T06:53:58;7.63;;;2.20;;
28343;SDS011;15597;50.914;6.638;2023-04-03T06:56:24;4.75;;;1.77;;
28343;SDS011;15597;50.914;6.638;2023-04-03T06:58:52;4.38;;;1.83;;
28343;SDS011;15597;50.914;6.638;2023-04-03T07:01:20;6.28;;;2.33;;
28343;SDS011;15597;50.914;6.638;2023-04-03T07:03:46;3.10;;;1.60;;
28343;SDS011;15597;50.914;6.638;2023-04-03T07:06:14;4.85;;;2.00;;
28343;SDS011;15597;50.914;6.638;2023-04-03T07:08:40;5.35;;;2.17;;
28343;SDS011;15597;50.914;6.638;2023-04-03T07:11:07;6.53;;;2.00;;
28343;SDS011;15597;50.914;6.638;2023-04-03T07:13:33;4.55;;;1.90;;
28343;SDS011;15597;50.914;6.638;2023-04-03T07:15:58;5.75;;;1.95;;
28343;SDS011;15597;50.914;6.638;2023-04-03T07:18:24;6.22;;;1.98;;
28343;SDS011;15597;50.914;6.638;2023-04-03T07:20:50;5.45;;;1.80;;
28343;SDS011;15597;50.914;6.638;2023-04-03T07:23:16;4.43;;;1.83;;
28343;SDS011;15597;50.914;6.638;2023-04-03T07:25:45;4.05;;;1.67;;
28343;SDS011;15597;50.914;6.638;2023-04-03T07:28:12;4.32;;;1.80;;
28343;SDS011;15597;50.914;6.638;2023-04-03T07:30:42;7.35;;;2.13;;
28343;SDS011;15597;50.914;6.638;2023-04-03T07:33:09;3.78;;;1.80;;
28343;SDS011;15597;50.914;6.638;2023-04-03T07:35:34;6.32;;;1.95;;
28343;SDS011;15597;50.914;6.638;2023-04-03T07:38:00;5.47;;;2.00;;
28343;SDS011;15597;50.914;6.638;2023-04-03T07:40:26;4.55;;;1.85;;
28343;SDS011;15597;50.914;6.638;2023-04-03T07:42:52;5.75;;;1.77;;
28343;SDS011;15597;50.914;6.638;2023-04-03T07:45:17;4.63;;;2.15;;
28343;SDS011;15597;50.914;6.638;2023-04-03T07:47:44;5.57;;;1.63;;
28343;SDS011;15597;50.914;6.638;2023-04-03T07:50:10;4.32;;;1.90;;
28343;SDS011;15597;50.914;6.638;2023-04-03T07:52:36;6.90;;;1.90;;
28343;SDS011;15597;50.914;6.638;2023-04-03T07:55:01;6.03;;;1.75;;
28343;SDS011;15597;50.914;6.638;2023-04-03T07:57:27;3.58;;;1.73;;
28343;SDS011;15597;50.914;6.638;2023-04-03T07:59:52;4.78;;;1.67;;
28343;SDS011;15597;50.914;6.638;2023-04-03T08:02:18;3.88;;;1.48;;
28343;SDS011;15597;50.914;6.638;2023-04-03T08:04:43;5.50;;;1.73;;
28343;SDS011;15597;50.914;6.638;2023-04-03T08:07:09;6.65;;;1.73;;
28343;SDS011;15597;50.914;6.638;2023-04-03T08:09:35;5.90;;;2.00;;
28343;SDS011;15597;50.914;6.638;2023-04-03T08:12:00;6.68;;;1.98;;
28343;SDS011;15597;50.914;6.638;2023-04-03T08:14:26;6.05;;;1.92;;
28343;SDS011;15597;50.914;6.638;2023-04-03T08:16:51;5.03;;;1.70;;
28343;SDS011;15597;50.914;6.638;2023-04-03T08:19:17;5.28;;;1.60;;
28343;SDS011;15597;50.914;6.638;2023-04-03T08:21:43;7.15;;;2.20;;
28343;SDS011;15597;50.914;6.638;2023-04-03T08:24:10;4.35;;;1.52;;
28343;SDS011;15597;50.914;6.638;2023-04-03T08:26:36;5.47;;;1.70;;
28343;SDS011;15597;50.914;6.638;2023-04-03T08:29:02;5.22;;;1.45;;
28343;SDS011;15597;50.914;6.638;2023-04-03T08:31:28;5.65;;;1.67;;
28343;SDS011;15597;50.914;6.638;2023-04-03T08:33:54;3.70;;;1.45;;
28343;SDS011;15597;50.914;6.638;2023-04-03T08:36:21;4.90;;;1.50;;
28343;SDS011;15597;50.914;6.638;2023-04-03T08:38:49;3.28;;;1.40;;
28343;SDS011;15597;50.914;6.638;2023-04-03T08:46:33;5.18;;;1.42;;
28343;SDS011;15597;50.914;6.638;2023-04-03T08:49:10;5.35;;;1.50;;
28343;SDS011;15597;50.914;6.638;2023-04-03T08:51:42;4.63;;;1.45;;
28343;SDS011;15597;50.914;6.638;2023-04-03T08:54:21;5.35;;;1.80;;
28343;SDS011;15597;50.914;6.638;2023-04-03T08:56:53;4.72;;;1.33;;
28343;SDS011;15597;50.914;6.638;2023-04-03T08:59:24;3.83;;;1.30;;
28343;SDS011;15597;50.914;6.638;2023-04-03T09:01:52;6.35;;;1.50;;
28343;SDS011;15597;50.914;6.638;2023-04-03T09:04:19;5.50;;;1.42;;
28343;SDS011;15597;50.914;6.638;2023-04-03T09:06:48;3.78;;;1.20;;
28343;SDS011;15597;50.914;6.638;2023-04-03T09:12:32;7.57;;;1.40;;
28343;SDS011;15597;50.914;6.638;2023-04-03T09:14:55;6.30;;;1.38;;
28343;SDS011;15597;50.914;6.638;2023-04-03T09:17:27;4.57;;;1.40;;
28343;SDS011;15597;50.914;6.638;2023-04-03T09:22:51;5.18;;;1.30;;
28343;SDS011;15597;50.914;6.638;2023-04-03T09:27:52;3.95;;;1.48;;
28343;SDS011;15597;50.914;6.638;2023-04-03T09:30:21;5.15;;;1.30;;
28343;SDS011;15597;50.914;6.638;2023-04-03T09:32:50;4.80;;;1.35;;
28343;SDS011;15597;50.914;6.638;2023-04-03T09:35:24;4.80;;;1.45;;
28343;SDS011;15597;50.914;6.638;2023-04-03T09:37:55;5.25;;;1.40;;
28343;SDS011;15597;50.914;6.638;2023-04-03T09:42:50;2.88;;;1.10;;
28343;SDS011;15597;50.914;6.638;2023-04-03T09:45:25;3.50;;;1.25;;
28343;SDS011;15597;50.914;6.638;2023-04-03T09:48:35;4.22;;;1.30;;
28343;SDS011;15597;50.914;6.638;2023-04-03T09:53:40;3.15;;;1.10;;
28343;SDS011;15597;50.914;6.638;2023-04-03T09:58:45;4.32;;;1.30;;
28343;SDS011;15597;50.914;6.638;2023-04-03T10:01:33;4.82;;;1.20;;
28343;SDS011;15597;50.914;6.638;2023-04-03T10:04:17;2.78;;;1.10;;
28343;SDS011;15597;50.914;6.638;2023-04-03T10:06:53;4.93;;;1.20;;
28343;SDS011;15597;50.914;6.638;2023-04-03T10:11:58;2.65;;;1.13;;
28343;SDS011;15597;50.914;6.638;2023-04-03T10:17:14;3.85;;;1.20;;
28343;SDS011;15597;50.914;6.638;2023-04-03T10:22:53;4.10;;;1.38;;
28343;SDS011;15597;50.914;6.638;2023-04-03T10:25:22;4.55;;;1.30;;
28343;SDS011;15597;50.914;6.638;2023-04-03T10:30:56;3.47;;;1.20;;
28343;SDS011;15597;50.914;6.638;2023-04-03T10:36:45;2.63;;;1.10;;
28343;SDS011;15597;50.914;6.638;2023-04-03T10:39:27;3.10;;;1.10;;
28343;SDS011;15597;50.914;6.638;2023-04-03T10:47:34;2.00;;;0.88;;
28343;SDS011;15597;50.914;6.638;2023-04-03T10:52:55;2.70;;;1.10;;
28343;SDS011;15597;50.914;6.638;2023-04-03T10:58:35;2.47;;;1.00;;
28343;SDS011;15597;50.914;6.638;2023-04-03T11:01:33;4.97;;;1.10;;
28343;SDS011;15597;50.914;6.638;2023-04-03T11:04:03;3.30;;;1.10;;
28343;SDS011;15597;50.914;6.638;2023-04-03T11:06:32;2.97;;;1.10;;
28343;SDS011;15597;50.914;6.638;2023-04-03T11:09:05;3.25;;;1.13;;
28343;SDS011;15597;50.914;6.638;2023-04-03T11:11:40;4.25;;;0.90;;
28343;SDS011;15597;50.914;6.638;2023-04-03T11:19:45;3.03;;;0.90;;
28343;SDS011;15597;50.914;6.638;2023-04-03T11:22:16;3.10;;;1.00;;
28343;SDS011;15597;50.914;6.638;2023-04-03T11:24:55;3.53;;;0.93;;
28343;SDS011;15597;50.914;6.638;2023-04-03T11:27:27;3.40;;;1.00;;
28343;SDS011;15597;50.914;6.638;2023-04-03T11:30:03;2.65;;;1.00;;
28343;SDS011;15597;50.914;6.638;2023-04-03T11:35:02;4.18;;;1.13;;
28343;SDS011;15597;50.914;6.638;2023-04-03T11:37:50;3.58;;;1.00;;
28343;SDS011;15597;50.914;6.638;2023-04-03T11:43:14;4.57;;;0.93;;
28343;SDS011;15597;50.914;6.638;2023-04-03T11:51:00;2.50;;;0.80;;
28343;SDS011;15597;50.914;6.638;2023-04-03T11:55:58;3.63;;;1.10;;
28343;SDS011;15597;50.914;6.638;2023-04-03T11:58:33;3.33;;;0.90;;
28343;SDS011;15597;50.914;6.638;2023-04-03T12:01:01;2.83;;;0.95;;
28343;SDS011;15597;50.914;6.638;2023-04-03T12:05:57;1.17;;;0.60;;
28343;SDS011;15597;50.914;6.638;2023-04-03T12:08:47;2.70;;;0.82;;
28343;SDS011;15597;50.914;6.638;2023-04-03T12:30:13;2.20;;;0.90;;
28343;SDS011;15597;50.914;6.638;2023-04-03T12:41:14;1.42;;;0.68;;
28343;SDS011;15597;50.914;6.638;2023-04-03T12:46:45;2.40;;;0.85;;
28343;SDS011;15597;50.914;6.638;2023-04-03T12:55:08;2.47;;;0.70;;
28343;SDS011;15597;50.914;6.638;2023-04-03T12:57:40;2.33;;;0.80;;
28343;SDS011;15597;50.914;6.638;2023-04-03T13:02:58;2.40;;;0.80;;
28343;SDS011;15597;50.914;6.638;2023-04-03T13:05:25;3.40;;;0.93;;
28343;SDS011;15597;50.914;6.638;2023-04-03T13:08:02;2.80;;;0.65;;
28343;SDS011;15597;50.914;6.638;2023-04-03T13:10:30;3.90;;;0.90;;
28343;SDS011;15597;50.914;6.638;2023-04-03T13:12:58;3.20;;;0.75;;
28343;SDS011;15597;50.914;6.638;2023-04-03T13:15:44;2.75;;;0.80;;
28343;SDS011;15597;50.914;6.638;2023-04-03T13:18:23;2.20;;;0.80;;
28343;SDS011;15597;50.914;6.638;2023-04-03T13:20:56;1.98;;;0.75;;
28343;SDS011;15597;50.914;6.638;2023-04-03T13:23:26;2.03;;;0.60;;
28343;SDS011;15597;50.914;6.638;2023-04-03T13:25:52;2.72;;;0.80;;
28343;SDS011;15597;50.914;6.638;2023-04-03T13:28:19;4.05;;;0.88;;
28343;SDS011;15597;50.914;6.638;2023-04-03T13:31:06;2.50;;;0.90;;
28343;SDS011;15597;50.914;6.638;2023-04-03T13:34:17;2.72;;;0.70;;
28343;SDS011;15597;50.914;6.638;2023-04-03T13:36:35;1.15;;;0.50;;
28343;SDS011;15597;50.914;6.638;2023-04-03T13:39:07;3.53;;;1.05;;
28343;SDS011;15597;50.914;6.638;2023-04-03T13:41:49;2.25;;;0.75;;
28343;SDS011;15597;50.914;6.638;2023-04-03T13:46:47;2.92;;;0.88;;
28343;SDS011;15597;50.914;6.638;2023-04-03T13:49:38;1.92;;;0.60;;
28343;SDS011;15597;50.914;6.638;2023-04-03T13:54:45;2.22;;;0.80;;
28343;SDS011;15597;50.914;6.638;2023-04-03T13:57:16;2.35;;;0.70;;
28343;SDS011;15597;50.914;6.638;2023-04-03T13:59:42;2.42;;;0.85;;
28343;SDS011;15597;50.914;6.638;2023-04-03T14:07:02;2.15;;;0.70;;
28343;SDS011;15597;50.914;6.638;2023-04-03T14:09:27;4.00;;;1.40;;
28343;SDS011;15597;50.914;6.638;2023-04-03T14:11:55;2.22;;;0.90;;
28343;SDS011;15597;50.914;6.638;2023-04-03T14:14:26;2.72;;;0.98;;
28343;SDS011;15597;50.914;6.638;2023-04-03T14:16:56;2.28;;;0.80;;
28343;SDS011;15597;50.914;6.638;2023-04-03T14:21:55;2.03;;;0.77;;
28343;SDS011;15597;50.914;6.638;2023-04-03T14:24:22;3.40;;;0.90;;
28343;SDS011;15597;50.914;6.638;2023-04-03T14:26:49;1.98;;;0.80;;
28343;SDS011;15597;50.914;6.638;2023-04-03T14:29:17;2.38;;;0.70;;
28343;SDS011;15597;50.914;6.638;2023-04-03T14:31:44;3.67;;;0.80;;
28343;SDS011;15597;50.914;6.638;2023-04-03T14:34:11;3.33;;;1.00;;
28343;SDS011;15597;50.914;6.638;2023-04-03T14:36:38;2.42;;;0.70;;
28343;SDS011;15597;50.914;6.638;2023-04-03T14:39:05;2.53;;;0.90;;
28343;SDS011;15597;50.914;6.638;2023-04-03T14:41:31;2.88;;;0.80;;
28343;SDS011;15597;50.914;6.638;2023-04-03T14:43:57;3.25;;;0.73;;
28343;SDS011;15597;50.914;6.638;2023-04-03T14:46:30;1.90;;;0.80;;
28343;SDS011;15597;50.914;6.638;2023-04-03T14:48:58;2.28;;;0.80;;
28343;SDS011;15597;50.914;6.638;2023-04-03T14:51:24;2.67;;;0.80;;
28343;SDS011;15597;50.914;6.638;2023-04-03T14:53:50;3.78;;;0.77;;
28343;SDS011;15597;50.914;6.638;2023-04-03T14:56:23;1.70;;;0.73;;
28343;SDS011;15597;50.914;6.638;2023-04-03T14:58:54;2.65;;;0.80;;
28343;SDS011;15597;50.914;6.638;2023-04-03T15:01:22;2.25;;;0.90;;
28343;SDS011;15597;50.914;6.638;2023-04-03T15:03:48;2.80;;;1.00;;
28343;SDS011;15597;50.914;6.638;2023-04-03T15:06:15;4.22;;;1.00;;
28343;SDS011;15597;50.914;6.638;2023-04-03T15:08:41;2.90;;;0.90;;
28343;SDS011;15597;50.914;6.638;2023-04-03T15:11:09;3.33;;;0.70;;
28343;SDS011;15597;50.914;6.638;2023-04-03T15:13:35;2.60;;;0.90;;
28343;SDS011;15597;50.914;6.638;2023-04-03T15:16:02;3.60;;;1.25;;
28343;SDS011;15597;50.914;6.638;2023-04-03T15:18:29;3.63;;;0.90;;
28343;SDS011;15597;50.914;6.638;2023-04-03T15:21:02;4.07;;;1.00;;
28343;SDS011;15597;50.914;6.638;2023-04-03T15:23:27;3.58;;;1.10;;
28343;SDS011;15597;50.914;6.638;2023-04-03T15:25:55;2.38;;;0.95;;
28343;SDS011;15597;50.914;6.638;2023-04-03T15:31:05;2.15;;;0.70;;
28343;SDS011;15597;50.914;6.638;2023-04-03T15:33:31;2.88;;;0.88;;
28343;SDS011;15597;50.914;6.638;2023-04-03T15:35:58;3.00;;;1.00;;
28343;SDS011;15597;50.914;6.638;2023-04-03T15:38:23;4.38;;;1.10;;
28343;SDS011;15597;50.914;6.638;2023-04-03T15:40:49;2.70;;;1.00;;
28343;SDS011;15597;50.914;6.638;2023-04-03T15:43:15;2.03;;;0.90;;
28343;SDS011;15597;50.914;6.638;2023-04-03T15:45:41;3.58;;;0.82;;
28343;SDS011;15597;50.914;6.638;2023-04-03T15:48:08;3.45;;;0.80;;
28343;SDS011;15597;50.914;6.638;2023-04-03T15:50:34;4.63;;;1.30;;
28343;SDS011;15597;50.914;6.638;2023-04-03T15:53:00;2.80;;;0.90;;
28343;SDS011;15597;50.914;6.638;2023-04-03T15:55:28;2.88;;;0.88;;
28343;SDS011;15597;50.914;6.638;2023-04-03T15:57:55;3.17;;;0.90;;
28343;SDS011;15597;50.914;6.638;2023-04-03T16:00:21;3.10;;;1.02;;
28343;SDS011;15597;50.914;6.638;2023-04-03T16:02:49;3.42;;;1.00;;
28343;SDS011;15597;50.914;6.638;2023-04-03T16:05:17;3.08;;;1.05;;
28343;SDS011;15597;50.914;6.638;2023-04-03T16:07:44;5.15;;;1.20;;
28343;SDS011;15597;50.914;6.638;2023-04-03T16:10:10;2.63;;;0.90;;
28343;SDS011;15597;50.914;6.638;2023-04-03T16:12:38;4.32;;;1.20;;
28343;SDS011;15597;50.914;6.638;2023-04-03T16:15:04;2.50;;;0.80;;
28343;SDS011;15597;50.914;6.638;2023-04-03T16:17:31;2.75;;;0.90;;
28343;SDS011;15597;50.914;6.638;2023-04-03T16:19:58;2.33;;;0.90;;
28343;SDS011;15597;50.914;6.638;2023-04-03T16:22:24;2.92;;;0.90;;
28343;SDS011;15597;50.914;6.638;2023-04-03T16:24:51;3.95;;;1.00;;
28343;SDS011;15597;50.914;6.638;2023-04-03T16:27:17;5.03;;;1.20;;
28343;SDS011;15597;50.914;6.638;2023-04-03T16:29:45;3.53;;;1.00;;
28343;SDS011;15597;50.914;6.638;2023-04-03T16:32:11;3.22;;;1.10;;
28343;SDS011;15597;50.914;6.638;2023-04-03T16:34:37;3.38;;;1.00;;
28343;SDS011;15597;50.914;6.638;2023-04-03T16:37:05;3.33;;;1.10;;
28343;SDS011;15597;50.914;6.638;2023-04-03T16:39:34;4.05;;;1.17;;
28343;SDS011;15597;50.914;6.638;2023-04-03T16:42:00;2.90;;;1.00;;
28343;SDS011;15597;50.914;6.638;2023-04-03T16:44:26;3.30;;;1.20;;
28343;SDS011;15597;50.914;6.638;2023-04-03T16:46:51;3.60;;;1.17;;
28343;SDS011;15597;50.914;6.638;2023-04-03T16:49:17;4.57;;;1.40;;
28343;SDS011;15597;50.914;6.638;2023-04-03T16:51:43;4.50;;;1.02;;
28343;SDS011;15597;50.914;6.638;2023-04-03T16:54:09;4.03;;;1.17;;
28343;SDS011;15597;50.914;6.638;2023-04-03T16:56:36;3.38;;;1.08;;
28343;SDS011;15597;50.914;6.638;2023-04-03T16:59:02;5.85;;;1.00;;
28343;SDS011;15597;50.914;6.638;2023-04-03T17:01:27;3.38;;;0.90;;
28343;SDS011;15597;50.914;6.638;2023-04-03T17:03:53;3.25;;;1.05;;
28343;SDS011;15597;50.914;6.638;2023-04-03T17:06:20;5.50;;;1.20;;
28343;SDS011;15597;50.914;6.638;2023-04-03T17:08:49;6.15;;;1.38;;
28343;SDS011;15597;50.914;6.638;2023-04-03T17:11:25;2.40;;;0.80;;
28343;SDS011;15597;50.914;6.638;2023-04-03T17:13:52;3.80;;;1.50;;
28343;SDS011;15597;50.914;6.638;2023-04-03T17:16:17;3.10;;;1.02;;
28343;SDS011;15597;50.914;6.638;2023-04-03T17:18:43;3.15;;;1.15;;